createdAt,value
2023-04-23T00:03:48.544Z,10.43
2023-04-23T00:08:42.279Z,10.63
2023-04-23T00:13:35.145Z,10.50
2023-04-23T00:18:27.166Z,10.80
2023-04-23T00:23:19.215Z,9.90
2023-04-23T00:28:11.326Z,10.27
2023-04-23T00:33:03.629Z,10.00
2023-04-23T00:37:55.987Z,9.67
2023-04-23T00:42:49.228Z,9.73
2023-04-23T00:47:41.946Z,11.00
2023-04-23T00:52:36.048Z,10.40
2023-04-23T00:57:28.199Z,9.70
2023-04-23T01:02:20.931Z,8.90
2023-04-23T01:12:26.221Z,8.23
2023-04-23T01:17:18.301Z,8.60
2023-04-23T01:22:12.425Z,7.57
2023-04-23T01:27:04.670Z,7.53
2023-04-23T01:31:57.989Z,8.40
2023-04-23T01:36:51.130Z,8.00
2023-04-23T01:41:43.914Z,7.47
2023-04-23T01:46:37.001Z,8.03
2023-04-23T01:51:30.841Z,7.53
2023-04-23T01:56:28.232Z,8.00
2023-04-23T02:01:20.753Z,7.27
2023-04-23T02:06:13.701Z,6.90
2023-04-23T02:11:08.883Z,6.77
2023-04-23T02:16:01.080Z,6.63
2023-04-23T02:20:53.870Z,7.40
2023-04-23T02:25:47.349Z,6.77
2023-04-23T02:30:45.285Z,7.13
2023-04-23T02:35:37.384Z,6.70
2023-04-23T02:40:29.472Z,6.83
2023-04-23T02:45:21.738Z,6.53
2023-04-23T02:50:16.578Z,7.83
2023-04-23T02:55:09.604Z,6.70
2023-04-23T03:00:01.870Z,6.63
2023-04-23T03:05:05.449Z,6.80
2023-04-23T03:09:57.568Z,6.93
2023-04-23T03:14:50.096Z,7.10
2023-04-23T03:19:42.437Z,7.37
2023-04-23T03:24:35.379Z,7.00
2023-04-23T03:29:28.333Z,7.60
2023-04-23T03:34:20.994Z,6.23
2023-04-23T03:39:13.023Z,6.60
2023-04-23T03:44:14.477Z,6.20
2023-04-23T03:49:09.661Z,5.90
2023-04-23T03:54:02.166Z,5.70
2023-04-23T03:59:20.635Z,5.37
2023-04-23T04:04:15.928Z,5.60
2023-04-23T04:09:08.948Z,6.10
2023-04-23T04:14:00.994Z,5.33
2023-04-23T04:18:55.125Z,5.93
2023-04-23T04:23:48.423Z,6.93
2023-04-23T04:28:41.008Z,6.03
2023-04-23T04:33:35.647Z,6.50
2023-04-23T04:38:28.626Z,9.40
2023-04-23T04:43:20.710Z,7.17
2023-04-23T04:48:12.810Z,7.37
2023-04-23T04:53:04.849Z,7.17
2023-04-23T04:57:57.186Z,6.93
2023-04-23T05:02:52.608Z,6.47
2023-04-23T05:07:44.900Z,8.53
2023-04-23T05:12:37.352Z,7.70
2023-04-23T05:17:29.382Z,10.33
2023-04-23T05:22:23.324Z,8.33
2023-04-23T05:27:15.459Z,7.20
2023-04-23T05:32:07.663Z,7.93
2023-04-23T05:36:59.976Z,6.60
2023-04-23T05:41:52.031Z,5.93
2023-04-23T05:46:44.088Z,6.00
2023-04-23T05:51:37.335Z,5.50
2023-04-23T05:56:29.403Z,5.17
2023-04-23T06:01:21.667Z,5.37
2023-04-23T06:06:14.092Z,4.33
2023-04-23T06:11:06.647Z,4.50
2023-04-23T06:16:01.112Z,3.80
2023-04-23T06:20:53.370Z,3.70
2023-04-23T06:25:46.740Z,3.50
2023-04-23T06:30:38.768Z,3.63
2023-04-23T06:35:31.421Z,3.73
2023-04-23T06:40:23.406Z,4.57
2023-04-23T06:45:16.469Z,3.57
2023-04-23T06:50:09.137Z,3.43
2023-04-23T06:55:02.599Z,3.20
2023-04-23T06:59:54.640Z,3.60
2023-04-23T07:04:50.548Z,1.37
2023-04-23T07:09:42.604Z,1.60
2023-04-23T07:14:34.676Z,1.80
2023-04-23T07:19:27.582Z,1.43
2023-04-23T07:24:19.638Z,1.77
2023-04-23T07:29:11.999Z,1.50
2023-04-23T07:34:04.034Z,2.30
2023-04-23T07:38:57.229Z,1.80
2023-04-23T07:43:49.364Z,2.23
2023-04-23T07:48:41.401Z,1.87
2023-04-23T07:53:33.527Z,1.80
2023-04-23T07:58:25.865Z,1.63
2023-04-23T08:03:18.307Z,1.50
2023-04-23T08:08:12.114Z,1.23
2023-04-23T08:13:04.444Z,1.30
2023-04-23T08:17:56.555Z,1.40
2023-04-23T08:22:50.245Z,1.00
2023-04-23T08:27:42.306Z,0.70
2023-04-23T08:32:34.450Z,0.80
2023-04-23T08:37:30.849Z,0.50
2023-04-23T08:42:47.791Z,0.65
2023-04-23T08:47:44.554Z,0.80
2023-04-23T08:52:40.802Z,0.73
2023-04-23T08:57:33.349Z,0.97
2023-04-23T09:02:26.585Z,0.90
2023-04-23T09:07:19.091Z,0.90
2023-04-23T09:12:11.286Z,0.97
2023-04-23T09:17:03.867Z,0.80
2023-04-23T09:21:56.152Z,0.60
2023-04-23T09:26:49.932Z,0.77
2023-04-23T09:31:42.633Z,0.80
2023-04-23T09:36:36.908Z,0.63
2023-04-23T09:41:31.190Z,1.60
2023-04-23T09:46:37.821Z,0.63
2023-04-23T09:51:30.755Z,0.50
2023-04-23T09:56:22.900Z,0.70
2023-04-23T10:01:15.506Z,0.30
2023-04-23T10:06:14.250Z,0.53
2023-04-23T10:11:20.453Z,0.60
2023-04-23T10:16:22.456Z,0.40
2023-04-23T10:21:18.154Z,0.40
2023-04-23T10:26:14.972Z,0.50
2023-04-23T10:31:07.193Z,0.70
2023-04-23T10:36:00.335Z,0.40
2023-04-23T10:40:55.346Z,0.47
2023-04-23T10:45:49.391Z,0.50
2023-04-23T10:51:00.183Z,0.40
2023-04-23T10:56:08.050Z,0.40
2023-04-23T11:01:05.835Z,0.60
2023-04-23T11:06:02.988Z,0.40
2023-04-23T11:10:57.049Z,0.40
2023-04-23T11:15:49.202Z,0.53
2023-04-23T11:20:41.297Z,0.50
2023-04-23T11:25:37.685Z,0.53
2023-04-23T11:30:31.201Z,0.70
2023-04-23T11:35:28.404Z,1.13
2023-04-23T11:40:21.432Z,1.00
2023-04-23T11:45:23.301Z,0.83
2023-04-23T11:50:23.495Z,1.07
2023-04-23T11:55:16.858Z,0.57
2023-04-23T12:00:19.031Z,0.70
2023-04-23T12:05:11.687Z,0.83
2023-04-23T12:10:05.063Z,0.70
2023-04-23T12:15:05.202Z,0.80
2023-04-23T12:19:58.377Z,0.30
2023-04-23T12:24:54.886Z,0.73
2023-04-23T12:29:50.827Z,0.63
2023-04-23T12:34:56.969Z,0.70
2023-04-23T12:39:49.152Z,0.57
2023-04-23T12:44:41.216Z,0.63
2023-04-23T12:49:34.867Z,0.50
2023-04-23T12:54:37.862Z,0.40
2023-04-23T12:59:31.194Z,0.50
2023-04-23T13:04:23.376Z,0.40
2023-04-23T13:09:15.413Z,0.50
2023-04-23T13:14:08.187Z,0.40
2023-04-23T13:19:01.029Z,0.50
2023-04-23T13:23:56.205Z,0.60
2023-04-23T13:28:48.296Z,0.40
2023-04-23T13:33:41.191Z,0.30
2023-04-23T13:38:33.578Z,0.40
2023-04-23T13:43:25.712Z,0.50
2023-04-23T13:48:19.160Z,0.60
2023-04-23T13:53:11.755Z,0.50
2023-04-23T13:58:04.979Z,0.57
2023-04-23T14:02:57.196Z,1.83
2023-04-23T14:07:49.544Z,0.80
2023-04-23T14:12:41.718Z,0.60
2023-04-23T14:17:35.673Z,0.73
2023-04-23T14:22:28.231Z,0.90
2023-04-23T14:27:20.267Z,0.97
2023-04-23T14:32:12.943Z,0.70
2023-04-23T14:37:05.546Z,0.67
2023-04-23T14:41:57.579Z,0.70
2023-04-23T14:46:51.220Z,0.60
2023-04-23T14:51:44.543Z,0.60
2023-04-23T14:56:37.295Z,0.90
2023-04-23T15:01:32.160Z,0.97
2023-04-23T15:06:24.272Z,1.90
2023-04-23T15:11:16.382Z,1.10
2023-04-23T15:16:26.333Z,0.73
2023-04-23T15:21:28.600Z,0.43
2023-04-23T15:26:21.655Z,0.50
2023-04-23T15:31:13.846Z,0.80
2023-04-23T15:36:06.004Z,0.53
2023-04-23T15:40:58.355Z,1.17
2023-04-23T15:45:50.457Z,0.70
2023-04-23T15:50:43.341Z,0.93
2023-04-23T15:55:35.510Z,0.93
2023-04-23T16:00:28.628Z,0.70
2023-04-23T16:05:20.808Z,0.83
2023-04-23T16:10:12.973Z,1.20
2023-04-23T16:15:06.683Z,0.93
2023-04-23T16:19:58.760Z,0.90
2023-04-23T16:24:50.945Z,1.10
2023-04-23T16:29:43.382Z,1.23
2023-04-23T16:34:35.592Z,0.90
2023-04-23T16:39:27.642Z,1.00
2023-04-23T16:44:19.825Z,1.10
2023-04-23T16:49:13.503Z,1.60
2023-04-23T16:54:06.352Z,1.60
2023-04-23T16:58:58.591Z,1.80
2023-04-23T17:03:51.107Z,2.10
2023-04-23T17:08:43.283Z,1.87
2023-04-23T17:13:35.428Z,1.90
2023-04-23T17:18:27.681Z,2.00
2023-04-23T17:23:19.692Z,2.60
2023-04-23T17:28:11.753Z,3.83
2023-04-23T17:33:03.855Z,3.47
2023-04-23T17:37:55.977Z,3.40
2023-04-23T17:42:47.963Z,3.17
2023-04-23T17:47:40.976Z,2.60
2023-04-23T17:52:33.083Z,2.43
2023-04-23T17:57:25.616Z,1.90
2023-04-23T18:02:17.928Z,1.60
2023-04-23T18:07:10.133Z,1.73
2023-04-23T18:12:04.050Z,1.60
2023-04-23T18:16:56.280Z,1.30
2023-04-23T18:21:49.962Z,1.60
2023-04-23T18:26:42.066Z,1.50
2023-04-23T18:31:34.083Z,1.67
2023-04-23T18:36:33.548Z,1.87
2023-04-23T18:41:25.723Z,1.87
2023-04-23T18:46:17.909Z,2.07
2023-04-23T18:51:29.073Z,2.00
2023-04-23T18:56:21.245Z,1.83
2023-04-23T19:01:13.758Z,1.87
2023-04-23T19:06:07.950Z,1.90
2023-04-23T19:11:00.413Z,1.80
2023-04-23T19:15:52.555Z,2.40
2023-04-23T19:20:44.999Z,2.33
2023-04-23T19:25:37.335Z,2.60
2023-04-23T19:30:30.651Z,2.30
2023-04-23T19:35:22.689Z,2.23
2023-04-23T19:40:14.925Z,1.77
2023-04-23T19:45:08.555Z,1.67
2023-04-23T19:50:00.657Z,1.57
2023-04-23T19:54:52.659Z,1.70
2023-04-23T19:59:45.931Z,1.67
2023-04-23T20:04:38.200Z,2.03
2023-04-23T20:09:30.445Z,2.33
2023-04-23T20:14:24.762Z,1.90
2023-04-23T20:19:17.528Z,2.33
2023-04-23T20:24:10.609Z,2.00
2023-04-23T20:29:02.842Z,1.87
2023-04-23T20:33:55.034Z,2.07
2023-04-23T20:38:47.613Z,1.87
2023-04-23T20:43:42.445Z,1.80
2023-04-23T20:48:34.818Z,2.17
2023-04-23T20:53:26.921Z,2.00
2023-04-23T20:58:18.889Z,1.90
2023-04-23T21:03:11.482Z,1.87
2023-04-23T21:08:03.796Z,2.23
2023-04-23T21:12:55.933Z,1.87
2023-04-23T21:17:47.971Z,2.00
2023-04-23T21:22:39.977Z,2.17
2023-04-23T21:27:32.039Z,2.20
2023-04-23T21:32:24.134Z,2.50
2023-04-23T21:37:16.217Z,1.90
2023-04-23T21:42:08.242Z,3.30
2023-04-23T21:47:00.433Z,2.93
2023-04-23T21:51:54.658Z,2.87
2023-04-23T21:56:46.662Z,3.33
2023-04-23T22:01:38.678Z,3.40
2023-04-23T22:06:31.239Z,3.43
2023-04-23T22:11:23.450Z,3.80
2023-04-23T22:16:27.429Z,3.43
2023-04-23T22:21:20.527Z,3.80
2023-04-23T22:26:12.959Z,3.63
2023-04-23T22:31:05.100Z,3.80
2023-04-23T22:35:57.094Z,3.70
2023-04-23T22:40:49.102Z,3.87
2023-04-23T22:45:41.178Z,4.00
2023-04-23T22:50:33.270Z,4.43
2023-04-23T22:55:25.655Z,5.17
2023-04-23T23:00:17.828Z,4.27
2023-04-23T23:05:10.306Z,3.77
2023-04-23T23:10:05.053Z,3.60
2023-04-23T23:14:57.038Z,4.03
2023-04-23T23:19:49.069Z,4.00
2023-04-23T23:24:41.120Z,3.90
2023-04-23T23:29:33.166Z,4.03
2023-04-23T23:34:25.196Z,4.17
2023-04-23T23:39:20.062Z,4.13
2023-04-23T23:44:12.113Z,3.77
2023-04-23T23:49:04.137Z,3.80
2023-04-23T23:53:56.141Z,3.67
2023-04-23T23:58:48.134Z,3.30
